Time;durP1;ratioP1;P1;durP2;ratioP2;P2;SDS_P1;SDS_P2;PMS_P1;PMS_P2;Temp;Humidity;BMP_temperature;BMP_pressure;BME280_temperature;BME280_humidity;BME280_pressure;Samples;Min_cycle;Max_cycle;Signal;HPM_P1;HPM_P2
2022/01/25 00:26:47;;;;;;;19.37;9.57;;;;;;;-4.11;76.88;101013.75;5091866;28;20211;-56
2022/01/25 00:29:27;;;;;;;15.90;9.90;;;;;;;-4.09;76.77;101014.72;5091744;28;20197;-56
2022/01/25 00:31:55;;;;;;;16.30;9.50;;;;;;;-4.12;76.73;101013.69;5091544;28;20205;-53
2022/01/25 00:34:22;;;;;;;16.67;9.30;;;;;;;-4.03;76.25;101014.16;5091190;28;20202;-53
2022/01/25 00:36:49;;;;;;;14.60;9.27;;;;;;;-4.27;76.23;100984.97;5091528;28;20195;-55
2022/01/25 00:39:16;;;;;;;15.57;9.10;;;;;;;-4.19;76.56;101020.09;5091762;28;20669;-56
2022/01/25 00:41:43;;;;;;;16.67;8.43;;;;;;;-4.14;75.91;101021.19;5091370;28;20201;-56
2022/01/25 00:44:12;;;;;;;12.63;8.50;;;;;;;-4.16;75.98;101015.16;5091285;28;20693;-57
2022/01/25 00:46:39;;;;;;;16.27;8.67;;;;;;;-4.21;75.83;101029.28;5091508;28;20356;-57
2022/01/25 00:49:08;;;;;;;13.07;8.20;;;;;;;-4.36;75.79;101007.28;5091289;28;20282;-55
2022/01/25 00:51:57;;;;;;;12.43;7.87;;;;;;;-4.44;76.20;100996.72;5091224;28;20203;-55
2022/01/25 00:54:28;;;;;;;17.80;8.73;;;;;;;-4.32;76.24;101022.75;5090878;28;20231;-56
2022/01/25 00:56:55;;;;;;;18.07;9.43;;;;;;;-4.32;76.21;101017.69;5091258;28;20192;-53
2022/01/25 00:59:24;;;;;;;12.33;8.17;;;;;;;-4.44;76.19;100986.59;5091219;28;20827;-54
2022/01/25 01:01:53;;;;;;;13.73;8.87;;;;;;;-4.40;76.45;101011.28;5090887;28;20437;-54
2022/01/25 01:04:22;;;;;;;13.77;8.87;;;;;;;-4.42;75.90;100993.50;5090661;28;20246;-56
2022/01/25 01:06:50;;;;;;;13.47;8.33;;;;;;;-4.32;75.90;101007.53;5090448;28;21017;-56
2022/01/25 01:09:19;;;;;;;14.57;8.40;;;;;;;-4.27;75.34;101017.91;5090938;28;20199;-57
2022/01/25 01:11:53;;;;;;;15.90;9.30;;;;;;;-4.24;75.08;101011.34;5091068;28;20500;-56
2022/01/25 01:14:30;;;;;;;15.43;8.60;;;;;;;-4.19;75.33;101017.56;5090642;28;20199;-56
2022/01/25 01:30:48;;;;;;;15.57;8.30;;;;;;;-4.08;74.41;101000.38;5090683;28;20245;-53
2022/01/25 01:44:39;;;;;;;16.37;8.77;;;;;;;-4.22;74.72;100992.03;5051186;28;20764;-56
2022/01/25 01:47:10;;;;;;;16.37;9.10;;;;;;;-4.40;75.03;100980.88;5090374;28;20199;-56
2022/01/25 01:49:41;;;;;;;14.73;8.53;;;;;;;-4.33;75.38;100974.50;5090331;28;20504;-54
2022/01/25 01:52:11;;;;;;;16.23;9.37;;;;;;;-4.31;75.52;100980.53;5090324;28;20272;-54
2022/01/25 01:54:38;;;;;;;15.43;9.50;;;;;;;-4.39;75.46;100978.44;5089914;28;20237;-53
2022/01/25 01:57:07;;;;;;;14.83;8.93;;;;;;;-4.37;75.43;100981.06;5090807;28;20818;-53
2022/01/25 01:59:34;;;;;;;15.10;9.13;;;;;;;-4.43;75.33;100976.53;5090418;28;20507;-53
2022/01/25 02:02:02;;;;;;;17.50;9.33;;;;;;;-4.44;75.98;100972.25;5090284;28;20302;-53
2022/01/25 02:04:31;;;;;;;16.10;9.60;;;;;;;-4.49;76.03;100976.19;5089852;28;20452;-53
2022/01/25 02:06:58;;;;;;;20.37;9.27;;;;;;;-4.51;75.85;100965.09;5090250;28;20430;-53
2022/01/25 02:09:26;;;;;;;14.53;9.10;;;;;;;-4.40;75.89;100966.56;5090362;28;20201;-54
2022/01/25 02:11:53;;;;;;;18.83;9.93;;;;;;;-4.40;75.59;100970.75;5090138;28;20451;-54
2022/01/25 02:14:20;;;;;;;18.00;9.50;;;;;;;-4.49;75.54;100955.94;5090060;28;20646;-54
2022/01/25 02:17:03;;;;;;;16.67;8.80;;;;;;;-4.50;75.13;100964.31;5089842;28;20243;-56
2022/01/25 02:22:32;;;;;;;16.20;8.90;;;;;;;-4.53;75.61;100968.38;5094274;28;20195;-54
2022/01/25 02:25:00;;;;;;;14.00;8.33;;;;;;;-4.52;75.47;100955.78;5093772;28;20449;-55
2022/01/25 02:27:27;;;;;;;15.30;8.50;;;;;;;-4.56;75.41;100956.41;5094132;28;20750;-56
2022/01/25 02:29:54;;;;;;;14.03;8.33;;;;;;;-4.56;75.49;100961.47;5094286;28;20199;-56
2022/01/25 02:32:24;;;;;;;13.87;7.97;;;;;;;-4.65;75.90;100960.09;5094035;28;20206;-56
2022/01/25 02:34:51;;;;;;;15.33;8.47;;;;;;;-4.65;75.81;100953.38;5093573;28;20195;-56
2022/01/25 02:37:19;;;;;;;13.97;8.07;;;;;;;-4.84;76.21;100925.25;5093866;28;20195;-56
2022/01/25 02:39:46;;;;;;;16.37;8.77;;;;;;;-4.71;76.73;100950.47;5093779;28;20532;-54
2022/01/25 02:42:16;;;;;;;11.20;8.07;;;;;;;-4.80;77.63;100942.38;5093819;28;20199;-57
2022/01/25 02:44:44;;;;;;;11.23;7.27;;;;;;;-4.71;77.11;100940.34;5094070;28;20953;-57
2022/01/25 02:49:57;;;;;;;12.93;7.90;;;;;;;-4.84;77.77;100938.81;5093762;28;20424;-55
2022/01/25 02:52:25;;;;;;;13.00;7.60;;;;;;;-4.83;77.69;100935.47;5093508;28;20441;-54
2022/01/25 02:54:52;;;;;;;10.97;6.80;;;;;;;-4.74;77.20;100931.72;5093083;28;20477;-54
2022/01/25 02:57:20;;;;;;;11.83;7.20;;;;;;;-4.80;76.75;100935.66;5093677;28;20223;-53
2022/01/25 02:59:47;;;;;;;12.93;7.30;;;;;;;-4.71;76.82;100932.75;5093503;28;20634;-56
2022/01/25 03:02:14;;;;;;;12.87;6.60;;;;;;;-4.58;76.97;100935.16;5093705;28;20528;-54
2022/01/25 03:04:41;;;;;;;10.43;6.87;;;;;;;-4.71;75.67;100935.28;5093104;28;20199;-55
2022/01/25 03:07:09;;;;;;;12.23;6.87;;;;;;;-4.79;76.10;100934.00;5093513;28;20987;-53
2022/01/25 03:09:37;;;;;;;11.00;6.77;;;;;;;-4.82;76.43;100924.56;5093290;28;20441;-53
2022/01/25 03:12:07;;;;;;;13.10;7.30;;;;;;;-4.79;75.85;100917.16;5093225;28;20449;-56
2022/01/25 03:14:46;;;;;;;10.90;6.47;;;;;;;-4.84;75.91;100910.06;5092873;28;20540;-56
2022/01/25 03:17:14;;;;;;;14.77;7.10;;;;;;;-4.79;76.46;100916.28;5092753;28;20538;-56
2022/01/25 03:20:02;;;;;;;14.80;7.30;;;;;;;-4.80;76.08;100910.34;5093452;28;20860;-56
2022/01/25 03:22:54;;;;;;;10.50;7.43;;;;;;;-4.79;76.25;100901.06;5093036;28;20490;-56
2022/01/25 03:25:23;;;;;;;12.63;6.50;;;;;;;-4.80;76.21;100894.25;5092795;28;20449;-54
2022/01/25 03:27:50;;;;;;;10.67;6.60;;;;;;;-4.85;76.31;100883.00;5092998;28;20449;-52
2022/01/25 03:30:17;;;;;;;11.83;7.07;;;;;;;-4.79;76.33;100885.88;5092044;28;20445;-53
2022/01/25 03:32:44;;;;;;;14.10;7.63;;;;;;;-5.08;76.03;100836.22;5093336;28;20882;-53
2022/01/25 03:35:11;;;;;;;14.17;7.20;;;;;;;-4.84;76.12;100874.63;5092677;28;20445;-56
2022/01/25 03:37:37;;;;;;;10.57;6.03;;;;;;;-4.79;75.83;100873.22;5092622;28;20463;-56
2022/01/25 03:40:06;;;;;;;13.47;6.67;;;;;;;-4.83;76.14;100868.75;5092535;28;20483;-54
2022/01/25 03:42:37;;;;;;;11.17;6.47;;;;;;;-4.86;75.64;100861.91;5092904;28;20519;-53
2022/01/25 03:45:05;;;;;;;10.63;6.03;;;;;;;-4.90;76.02;100856.56;5092473;28;20441;-54
2022/01/25 03:47:44;;;;;;;10.83;6.87;;;;;;;-4.92;76.21;100845.50;5092722;28;20481;-53
2022/01/25 03:50:10;;;;;;;12.67;6.63;;;;;;;-5.01;76.11;100845.00;5092621;28;20449;-53
2022/01/25 03:52:37;;;;;;;9.93;6.27;;;;;;;-4.90;76.11;100843.91;5092416;28;20469;-54
2022/01/25 03:55:05;;;;;;;10.63;6.37;;;;;;;-4.85;74.97;100850.06;5092284;28;20237;-54
2022/01/25 03:57:34;;;;;;;7.50;5.80;;;;;;;-4.89;75.33;100846.53;5092454;28;20604;-54
2022/01/25 04:00:01;;;;;;;7.83;5.83;;;;;;;-4.80;74.81;100841.09;5092436;28;20278;-54
2022/01/25 04:02:33;;;;;;;15.40;6.30;;;;;;;-4.66;73.89;100846.88;5080173;28;20473;-53
2022/01/25 04:05:01;;;;;;;7.87;5.60;;;;;;;-4.67;73.73;100837.53;5083751;28;20834;-56
2022/01/25 04:07:41;;;;;;;12.77;5.77;;;;;;;-4.71;73.22;100835.63;5089372;28;20532;-56
2022/01/25 04:10:09;;;;;;;12.17;5.93;;;;;;;-4.85;73.88;100833.22;5089758;28;20437;-56
2022/01/25 04:12:38;;;;;;;11.10;5.80;;;;;;;-4.82;73.72;100835.06;5087955;28;20448;-56
2022/01/25 04:15:05;;;;;;;8.63;5.67;;;;;;;-4.84;73.72;100834.97;5090331;28;20447;-56
2022/01/25 04:17:34;;;;;;;7.67;5.70;;;;;;;-4.84;74.27;100832.44;5090262;28;20222;-55
2022/01/25 04:20:14;;;;;;;8.07;5.50;;;;;;;-4.84;74.29;100823.97;5090548;28;20444;-56
2022/01/25 04:25:25;;;;;;;7.93;5.37;;;;;;;-4.66;72.94;100824.09;5087063;28;20444;-56
2022/01/25 04:27:54;;;;;;;9.53;5.67;;;;;;;-4.72;73.43;100819.56;5085882;28;20200;-56
2022/01/25 04:30:21;;;;;;;7.23;5.40;;;;;;;-4.79;72.90;100823.44;5090211;28;20199;-56
2022/01/25 04:32:52;;;;;;;7.60;5.13;;;;;;;-4.63;72.63;100814.13;5090219;28;20973;-54
2022/01/25 04:35:42;;;;;;;7.70;5.10;;;;;;;-4.66;72.64;100819.91;5090330;28;20582;-54
2022/01/25 04:49:14;;;;;;;6.87;5.20;;;;;;;-4.39;78.31;100822.97;5085546;28;20473;-52
2022/01/25 04:51:53;;;;;;;6.33;4.80;;;;;;;-4.38;73.46;100823.06;5087405;28;20200;-52
2022/01/25 04:54:32;;;;;;;7.73;5.57;;;;;;;-4.28;71.46;100818.47;5089566;28;20234;-52
2022/01/25 04:57:11;;;;;;;7.30;5.20;;;;;;;-4.20;69.57;100813.00;5089393;28;20750;-52
2022/01/25 04:59:47;;;;;;;5.80;4.70;;;;;;;-4.17;68.83;100815.69;5089648;28;20567;-52
2022/01/25 05:02:18;;;;;;;6.23;4.53;;;;;;;-4.14;68.51;100808.22;5089867;28;20241;-52
2022/01/25 05:04:51;;;;;;;7.57;5.43;;;;;;;-4.14;68.76;100817.50;5090367;28;20552;-54
2022/01/25 05:07:29;;;;;;;9.17;5.00;;;;;;;-4.16;68.99;100819.09;5090413;28;20664;-54
2022/01/25 05:09:57;;;;;;;9.60;5.83;;;;;;;-4.19;68.69;100818.94;5089933;28;20270;-54
2022/01/25 05:12:35;;;;;;;10.27;5.47;;;;;;;-4.44;68.65;100784.75;5091108;28;20222;-55
2022/01/25 05:15:19;;;;;;;8.07;5.20;;;;;;;-4.34;68.78;100808.03;5091026;28;20250;-53
2022/01/25 05:17:58;;;;;;;7.97;5.47;;;;;;;-4.51;69.21;100802.94;5091011;28;20672;-53
2022/01/25 05:23:09;;;;;;;7.63;5.47;;;;;;;-4.52;69.49;100808.81;5090647;28;20200;-54
2022/01/25 05:25:36;;;;;;;8.90;5.23;;;;;;;-4.72;70.45;100803.50;5090861;28;20441;-55
2022/01/25 05:28:03;;;;;;;8.37;5.77;;;;;;;-4.68;70.65;100818.94;5090563;28;20448;-53
2022/01/25 05:30:32;;;;;;;6.10;4.57;;;;;;;-4.64;70.57;100823.38;5090618;28;20191;-57
2022/01/25 05:32:59;;;;;;;8.33;5.30;;;;;;;-4.61;70.75;100822.66;5090821;28;20437;-57
2022/01/25 05:35:26;;;;;;;12.87;5.43;;;;;;;-4.63;70.14;100825.13;5090730;28;20464;-57
2022/01/25 05:37:53;;;;;;;7.80;4.87;;;;;;;-4.58;69.62;100828.75;5090341;28;20483;-57
2022/01/25 05:40:29;;;;;;;7.17;5.20;;;;;;;-4.52;69.72;100831.63;5090444;28;20437;-57
2022/01/25 05:45:57;;;;;;;13.40;5.70;;;;;;;-4.61;69.83;100826.06;5090569;28;20695;-57
2022/01/25 05:48:24;;;;;;;6.20;5.10;;;;;;;-4.50;69.76;100840.16;5090347;28;20449;-57
2022/01/25 05:50:51;;;;;;;9.20;5.63;;;;;;;-4.39;69.02;100835.66;5090417;28;20201;-57
2022/01/25 05:53:19;;;;;;;8.27;5.70;;;;;;;-4.39;68.72;100841.59;5089915;28;20209;-57
2022/01/25 05:55:46;;;;;;;8.23;5.63;;;;;;;-4.45;68.97;100845.47;5090008;28;20222;-57
2022/01/25 05:58:13;;;;;;;15.07;6.00;;;;;;;-4.50;69.04;100845.22;5090042;28;20229;-56
2022/01/25 06:00:41;;;;;;;10.67;6.40;;;;;;;-4.44;68.99;100825.28;5090133;28;20282;-57
2022/01/25 06:03:08;;;;;;;9.00;6.27;;;;;;;-4.39;69.00;100836.50;5090212;28;20550;-56
2022/01/25 06:05:36;;;;;;;10.03;5.30;;;;;;;-4.19;67.89;100831.63;5090305;28;20733;-56
2022/01/25 06:08:04;;;;;;;12.10;5.63;;;;;;;-4.12;67.12;100826.06;5090036;28;20208;-56
2022/01/25 06:10:31;;;;;;;16.10;6.10;;;;;;;-4.15;66.90;100796.34;5090124;28;20207;-56
2022/01/25 06:12:58;;;;;;;7.60;5.60;;;;;;;-3.91;66.03;100831.34;5090146;28;20202;-57
2022/01/25 06:15:26;;;;;;;21.13;6.97;;;;;;;-3.84;65.46;100811.44;5090277;28;20194;-56
2022/01/25 06:17:54;;;;;;;16.33;6.93;;;;;;;-3.77;65.04;100820.22;5090056;28;20220;-56
2022/01/25 06:20:21;;;;;;;10.63;5.90;;;;;;;-3.71;65.38;100818.84;5090255;28;20196;-52
2022/01/25 06:22:48;;;;;;;13.87;6.43;;;;;;;-3.59;64.78;100820.22;5090057;28;20204;-54
2022/01/25 06:25:15;;;;;;;11.97;6.87;;;;;;;-3.54;63.97;100819.66;5089976;28;20198;-55
2022/01/25 06:27:44;;;;;;;8.07;5.73;;;;;;;-3.40;62.78;100817.78;5085339;28;20257;-55
2022/01/25 06:30:16;;;;;;;9.70;5.80;;;;;;;-3.44;62.63;100805.75;5071580;28;20228;-53
2022/01/25 06:32:44;;;;;;;10.63;6.27;;;;;;;-3.41;62.89;100816.06;5069213;28;20246;-53
2022/01/25 06:35:13;;;;;;;8.90;6.03;;;;;;;-3.29;62.88;100811.56;5068892;28;20230;-53
2022/01/25 06:37:41;;;;;;;10.00;5.60;;;;;;;-3.10;62.06;100824.31;5069053;28;20227;-54
2022/01/25 06:40:09;;;;;;;12.83;6.07;;;;;;;-3.02;61.42;100825.53;5068325;28;20234;-54
2022/01/25 06:42:36;;;;;;;9.73;6.73;;;;;;;-3.01;61.39;100819.66;5071086;28;20243;-55
2022/01/25 06:45:09;;;;;;;11.63;7.30;;;;;;;-3.09;61.68;100817.56;5076537;28;20315;-54
2022/01/25 06:47:36;;;;;;;10.83;6.70;;;;;;;-3.07;61.54;100808.34;5080562;28;20237;-54
2022/01/25 06:50:04;;;;;;;9.13;6.43;;;;;;;-3.12;61.47;100797.97;5076431;28;20598;-55
2022/01/25 06:52:32;;;;;;;11.70;6.73;;;;;;;-3.01;61.91;100804.41;5076844;28;20219;-53
2022/01/25 06:54:59;;;;;;;9.47;6.80;;;;;;;-2.96;61.55;100804.63;5076495;28;20231;-53
2022/01/25 06:57:26;;;;;;;11.27;6.30;;;;;;;-2.83;61.77;100809.47;5086459;28;20227;-53
2022/01/25 06:59:53;;;;;;;8.47;5.87;;;;;;;-2.90;62.08;100802.34;5089858;28;20219;-55
2022/01/25 07:02:20;;;;;;;9.63;6.67;;;;;;;-2.96;62.40;100808.03;5089514;28;20197;-55
2022/01/25 07:04:47;;;;;;;12.10;7.17;;;;;;;-2.91;63.07;100813.31;5090704;28;20266;-54
2022/01/25 07:07:14;;;;;;;9.43;6.60;;;;;;;-2.82;62.37;100811.19;5093154;28;20258;-54
2022/01/25 07:09:43;;;;;;;13.97;7.50;;;;;;;-2.72;62.43;100804.88;5093271;28;20588;-54
2022/01/25 07:12:10;;;;;;;15.50;7.37;;;;;;;-2.68;62.26;100820.31;5076702;28;20224;-54
2022/01/25 07:14:37;;;;;;;13.07;7.33;;;;;;;-2.63;62.57;100812.91;5078282;28;20241;-55
2022/01/25 07:17:04;;;;;;;21.93;7.23;;;;;;;-2.57;62.96;100811.47;5094491;28;20219;-54
2022/01/25 07:19:31;;;;;;;13.40;7.43;;;;;;;-2.53;62.43;100825.22;5082989;28;20216;-54
2022/01/25 07:21:58;;;;;;;13.93;7.43;;;;;;;-2.57;62.80;100814.03;5071894;28;20293;-54
2022/01/25 07:24:25;;;;;;;16.17;8.23;;;;;;;-2.50;63.76;100804.16;5071807;28;20226;-56
2022/01/25 07:26:53;;;;;;;17.93;7.33;;;;;;;-2.51;63.64;100807.50;5071890;28;20220;-57
2022/01/25 07:29:20;;;;;;;14.57;7.70;;;;;;;-2.43;63.60;100809.56;5072177;28;20220;-58
2022/01/25 07:31:47;;;;;;;11.93;7.60;;;;;;;-2.34;65.60;100812.50;5083732;28;20231;-57
2022/01/25 07:34:14;;;;;;;16.83;9.37;;;;;;;-2.37;64.55;100809.81;5092294;28;20752;-57
2022/01/25 07:36:42;;;;;;;20.37;10.03;;;;;;;-2.14;76.88;100815.06;5090400;28;20222;-58
2022/01/25 07:39:09;;;;;;;20.43;10.43;;;;;;;-2.16;65.22;100791.22;5097662;27;20311;-58
2022/01/25 07:41:37;;;;;;;16.97;9.83;;;;;;;-2.08;63.48;100797.50;5087682;28;20303;-58
2022/01/25 07:44:06;;;;;;;18.10;9.10;;;;;;;-1.91;62.54;100816.84;5082688;28;20210;-58
2022/01/25 07:46:34;;;;;;;13.67;8.47;;;;;;;-2.00;61.95;100812.25;5080949;28;20577;-56
2022/01/25 07:49:01;;;;;;;14.43;8.10;;;;;;;-2.07;61.76;100811.94;5072254;28;20207;-55
2022/01/25 07:51:29;;;;;;;16.33;8.23;;;;;;;-2.03;62.67;100804.50;5072359;28;20196;-57
2022/01/25 07:53:59;;;;;;;16.90;8.93;;;;;;;-1.90;62.13;100800.78;5072311;28;20236;-56
2022/01/25 07:56:26;;;;;;;13.60;8.57;;;;;;;-1.83;62.05;100807.88;5072418;28;20640;-57
2022/01/25 07:58:54;;;;;;;15.13;8.90;;;;;;;-1.70;62.00;100809.28;5072171;28;20203;-55
2022/01/25 08:01:22;;;;;;;15.13;9.70;;;;;;;-1.66;60.60;100800.94;5072231;28;20515;-56
2022/01/25 08:03:49;;;;;;;26.83;12.13;;;;;;;-1.66;60.66;100804.34;5089822;28;20237;-56
2022/01/25 08:06:16;;;;;;;27.47;12.30;;;;;;;-1.56;60.73;100806.44;5090108;28;20229;-57
2022/01/25 08:08:44;;;;;;;23.00;12.13;;;;;;;-1.43;60.05;100800.19;5091590;28;20219;-56
2022/01/25 08:11:11;;;;;;;24.37;10.97;;;;;;;-1.39;59.95;100803.72;5091794;28;20676;-56
2022/01/25 08:13:45;;;;;;;21.57;9.80;;;;;;;-1.41;59.66;100795.16;5084137;28;20196;-55
2022/01/25 08:16:11;;;;;;;31.80;11.50;;;;;;;-1.36;59.19;100798.75;5071406;28;20202;-57
2022/01/25 08:18:40;;;;;;;25.92;13.40;;;;;;;-1.26;59.33;100793.22;5070214;28;20445;-57
2022/01/25 08:21:07;;;;;;;25.17;11.17;;;;;;;-1.35;58.85;100791.16;5071718;28;20244;-57
2022/01/25 08:23:34;;;;;;;26.53;10.63;;;;;;;-1.24;58.52;100789.06;5071814;28;20245;-57
2022/01/25 08:26:02;;;;;;;19.70;8.83;;;;;;;-1.19;58.35;100778.22;5071599;28;20219;-57
2022/01/25 08:28:30;;;;;;;22.33;9.30;;;;;;;-1.11;58.42;100786.13;5082609;28;20223;-57
2022/01/25 08:30:58;;;;;;;22.93;9.67;;;;;;;-1.13;57.90;100792.88;5077843;28;20273;-56
2022/01/25 08:33:25;;;;;;;15.90;8.50;;;;;;;-1.06;57.33;100787.19;5088601;28;20281;-57
2022/01/25 08:35:53;;;;;;;11.10;8.07;;;;;;;-1.07;57.68;100790.56;5091406;28;20203;-57
2022/01/25 08:38:20;;;;;;;18.50;8.63;;;;;;;-1.05;58.66;100783.84;5091364;28;20804;-56
2022/01/25 08:40:47;;;;;;;16.03;9.17;;;;;;;-1.07;58.44;100788.00;5091551;28;20560;-55
2022/01/25 08:43:14;;;;;;;13.90;8.70;;;;;;;-1.11;58.55;100779.38;5089950;28;20199;-56
2022/01/25 08:45:41;;;;;;;15.63;9.10;;;;;;;-1.05;59.24;100768.56;5083323;28;20233;-56
2022/01/25 08:48:08;;;;;;;13.43;8.87;;;;;;;-1.13;59.63;100769.94;5091382;28;20214;-56
2022/01/25 08:50:35;;;;;;;15.77;9.37;;;;;;;-1.16;61.09;100760.50;5091349;28;20199;-56
2022/01/25 08:53:03;;;;;;;15.27;8.77;;;;;;;-1.18;59.64;100758.72;5090778;28;20287;-58
2022/01/25 08:55:30;;;;;;;20.30;9.30;;;;;;;-1.07;59.74;100761.66;5091129;28;20636;-56
2022/01/25 08:57:57;;;;;;;15.17;9.00;;;;;;;-1.02;59.41;100753.38;5091152;28;20230;-56
2022/01/25 09:00:24;;;;;;;17.50;9.90;;;;;;;-0.96;59.27;100747.63;5091320;28;20645;-57
2022/01/25 09:02:51;;;;;;;16.30;9.50;;;;;;;-0.94;59.31;100746.88;5090798;28;20198;-57
2022/01/25 09:05:19;;;;;;;18.70;9.87;;;;;;;-0.88;59.03;100746.22;5090711;28;20676;-57
2022/01/25 09:07:46;;;;;;;40.53;12.10;;;;;;;-0.79;59.25;100736.41;5090752;28;20196;-57
2022/01/25 09:10:14;;;;;;;29.43;11.27;;;;;;;-0.61;58.62;100737.03;5090771;28;20256;-57
2022/01/25 09:12:41;;;;;;;40.90;13.07;;;;;;;-0.56;58.33;100729.53;5090850;28;20207;-56
2022/01/25 09:15:09;;;;;;;38.63;11.43;;;;;;;-0.55;57.63;100728.72;5090646;28;20209;-55
2022/01/25 09:17:36;;;;;;;24.40;10.60;;;;;;;-0.59;57.63;100719.25;5090573;28;20225;-56
2022/01/25 09:20:04;;;;;;;19.47;9.53;;;;;;;-0.54;57.21;100707.50;5090604;28;20203;-54
2022/01/25 09:22:31;;;;;;;19.07;9.83;;;;;;;-0.44;57.12;100722.31;5090838;28;20229;-54
2022/01/25 09:24:58;;;;;;;18.10;9.33;;;;;;;-0.38;56.42;100717.44;5090648;28;20240;-54
2022/01/25 09:27:26;;;;;;;19.47;9.93;;;;;;;-0.38;56.62;100715.75;5090027;28;20720;-54
2022/01/25 09:29:53;;;;;;;17.93;9.57;;;;;;;-0.46;56.50;100701.00;5082768;28;20223;-55
2022/01/25 09:32:20;;;;;;;20.87;9.60;;;;;;;-0.38;56.88;100699.59;5080579;28;20232;-55
2022/01/25 09:34:47;;;;;;;16.87;9.37;;;;;;;-0.40;56.29;100696.09;5076602;28;20269;-55
2022/01/25 09:37:15;;;;;;;17.03;10.00;;;;;;;-0.53;56.17;100642.94;5089447;28;20225;-55
2022/01/25 09:39:42;;;;;;;21.42;12.15;;;;;;;-0.20;56.15;100669.56;5089712;28;20463;-54
2022/01/25 09:42:10;;;;;;;18.67;11.50;;;;;;;-0.07;56.34;100676.81;5090511;28;20285;-55
2022/01/25 09:44:40;;;;;;;16.67;10.10;;;;;;;0.00;55.60;100678.72;5090635;28;20194;-56
2022/01/25 09:47:09;;;;;;;17.13;10.10;;;;;;;0.06;55.81;100669.56;5090858;28;20202;-55
2022/01/25 09:49:37;;;;;;;24.67;11.53;;;;;;;0.06;55.21;100672.09;5090452;28;20222;-54
2022/01/25 09:52:06;;;;;;;16.57;10.17;;;;;;;0.20;55.18;100661.50;5090150;28;20201;-55
2022/01/25 09:54:34;;;;;;;24.37;11.00;;;;;;;0.14;55.26;100658.75;5090104;28;20235;-56
2022/01/25 09:57:04;;;;;;;26.43;12.13;;;;;;;0.19;54.70;100651.25;5090250;28;20305;-56
2022/01/25 09:59:31;;;;;;;20.63;11.67;;;;;;;0.21;54.39;100652.16;5090230;28;20552;-55
2022/01/25 10:02:00;;;;;;;29.43;9.73;;;;;;;0.23;54.22;100653.06;5090048;28;20201;-55
2022/01/25 10:04:32;;;;;;;15.17;9.67;;;;;;;0.28;53.91;100641.31;5090420;28;20294;-57
2022/01/25 10:07:00;;;;;;;16.23;9.57;;;;;;;0.25;53.51;100642.09;5090160;28;20191;-57
2022/01/25 10:09:29;;;;;;;14.17;10.00;;;;;;;0.30;54.22;100644.78;5090100;28;20191;-58
2022/01/25 10:11:56;;;;;;;22.90;9.73;;;;;;;0.41;53.61;100637.44;5089919;28;20190;-58
2022/01/25 10:14:25;;;;;;;15.57;9.47;;;;;;;0.45;53.52;100632.50;5089903;28;20206;-58
2022/01/25 10:16:56;;;;;;;18.27;10.47;;;;;;;0.55;53.66;100620.84;5089836;28;20206;-59
2022/01/25 10:19:26;;;;;;;14.13;8.70;;;;;;;0.55;52.45;100619.16;5089831;28;20224;-58
2022/01/25 10:21:54;;;;;;;15.77;8.30;;;;;;;0.51;51.12;100616.47;5089939;28;20195;-58
2022/01/25 10:24:24;;;;;;;12.63;7.73;;;;;;;0.50;50.28;100607.06;5070268;28;20314;-58
2022/01/25 10:26:54;;;;;;;12.50;7.63;;;;;;;0.48;50.34;100609.56;5069048;28;20227;-58
2022/01/25 10:29:24;;;;;;;16.33;8.33;;;;;;;0.45;50.82;100601.84;5069143;28;20216;-58
2022/01/25 10:31:54;;;;;;;14.73;7.90;;;;;;;0.50;50.34;100594.28;5069154;28;20218;-58
2022/01/25 10:34:27;;;;;;;14.57;8.00;;;;;;;0.54;49.96;100591.88;5075858;28;20227;-58
2022/01/25 10:36:56;;;;;;;14.57;8.50;;;;;;;0.56;48.56;100591.94;5089214;28;20240;-58
2022/01/25 10:39:27;;;;;;;10.67;6.60;;;;;;;0.66;47.35;100594.78;5092051;28;20230;-59
2022/01/25 10:42:03;;;;;;;16.57;7.87;;;;;;;0.68;47.22;100595.66;5093850;28;20292;-58
2022/01/25 10:44:46;;;;;;;12.97;8.07;;;;;;;0.62;49.06;100586.97;5093810;28;20202;-57
2022/01/25 10:47:12;;;;;;;12.07;7.83;;;;;;;0.68;48.90;100574.34;5093661;28;20195;-58
2022/01/25 10:49:50;;;;;;;15.00;8.37;;;;;;;0.52;48.46;100573.09;5093500;28;20661;-58
2022/01/25 10:52:24;;;;;;;10.53;7.30;;;;;;;0.71;48.66;100572.75;5093527;28;20197;-54
2022/01/25 10:54:51;;;;;;;11.50;7.17;;;;;;;0.71;47.52;100565.09;5083559;28;20713;-55
2022/01/25 10:57:19;;;;;;;12.70;7.70;;;;;;;0.64;48.36;100557.22;5092770;28;20195;-56
2022/01/25 10:59:58;;;;;;;10.20;6.93;;;;;;;0.65;48.44;100554.72;5093148;28;20219;-55
2022/01/25 11:02:25;;;;;;;15.17;7.20;;;;;;;0.84;46.97;100552.66;5093028;28;20206;-55
2022/01/25 11:05:05;;;;;;;12.27;7.47;;;;;;;0.82;46.86;100556.84;5093728;28;20199;-55
2022/01/25 11:07:38;;;;;;;10.57;6.97;;;;;;;0.95;46.27;100548.69;5093319;28;20290;-58
2022/01/25 11:10:06;;;;;;;13.63;8.43;;;;;;;0.94;46.95;100544.41;5093346;28;20199;-58
2022/01/25 11:12:38;;;;;;;23.90;8.43;;;;;;;0.88;47.55;100541.69;5083329;28;20239;-58
2022/01/25 11:15:06;;;;;;;13.40;8.10;;;;;;;0.85;47.79;100532.25;5090530;28;20209;-59
2022/01/25 11:17:34;;;;;;;15.60;8.17;;;;;;;0.99;48.31;100527.50;5093191;28;20752;-55
2022/01/25 11:20:04;;;;;;;26.63;9.30;;;;;;;0.94;48.24;100526.50;5093350;28;20195;-55
2022/01/25 11:22:31;;;;;;;12.30;8.47;;;;;;;1.01;47.28;100518.19;5085322;28;20215;-57
2022/01/25 11:25:00;;;;;;;18.97;9.13;;;;;;;1.09;46.76;100506.47;5081565;28;20308;-55
2022/01/25 11:27:29;;;;;;;24.97;8.77;;;;;;;1.16;46.67;100500.66;5080334;28;20188;-55
2022/01/25 11:30:00;;;;;;;26.13;8.03;;;;;;;1.16;45.92;100500.66;5083096;28;20188;-55
2022/01/25 11:32:33;;;;;;;11.17;6.80;;;;;;;1.19;44.57;100500.75;5081267;28;20665;-55
2022/01/25 11:35:06;;;;;;;17.40;7.43;;;;;;;1.08;45.69;100489.38;5081837;28;20942;-55
2022/01/25 11:37:38;;;;;;;23.37;7.77;;;;;;;1.06;45.80;100499.56;5081431;28;20752;-55
2022/01/25 11:40:21;;;;;;;12.50;6.90;;;;;;;1.08;45.79;100499.63;5087015;28;20637;-55
2022/01/25 11:42:50;;;;;;;41.47;8.57;;;;;;;1.17;44.61;100498.97;5092871;28;20524;-58
2022/01/25 11:45:21;;;;;;;19.60;7.30;;;;;;;1.15;44.40;100495.50;5092641;28;20239;-55
2022/01/25 11:47:51;;;;;;;25.07;7.87;;;;;;;1.14;45.02;100494.63;5092531;28;20286;-56
2022/01/25 11:50:20;;;;;;;35.90;8.27;;;;;;;1.12;44.34;100486.09;5091603;28;20218;-56
2022/01/25 11:52:49;;;;;;;36.17;9.30;;;;;;;1.11;44.27;100483.50;5092537;28;20729;-57
2022/01/25 11:55:27;;;;;;;30.67;11.33;;;;;;;1.14;44.70;100474.19;5092259;28;20237;-56
2022/01/25 11:57:57;;;;;;;23.27;10.53;;;;;;;1.14;45.03;100491.22;5092280;28;20191;-55
2022/01/25 12:00:38;;;;;;;17.13;8.33;;;;;;;1.15;45.26;100478.47;5092133;28;20199;-55
2022/01/25 12:03:20;;;;;;;19.23;8.47;;;;;;;1.23;45.31;100476.13;5084440;28;20206;-55
2022/01/25 12:05:58;;;;;;;32.87;10.03;;;;;;;1.31;45.39;100475.47;5082701;28;20188;-56
2022/01/25 12:08:38;;;;;;;23.90;8.10;;;;;;;1.22;45.84;100459.06;5081640;28;20192;-55
2022/01/25 12:11:29;;;;;;;15.67;7.73;;;;;;;1.32;45.78;100469.53;5080835;28;20200;-55
2022/01/25 12:14:16;;;;;;;19.33;8.73;;;;;;;1.31;44.69;100446.47;5082539;28;20192;-58
2022/01/25 12:16:45;;;;;;;16.77;6.90;;;;;;;1.36;44.42;100466.19;5080867;28;20214;-59
2022/01/25 12:19:13;;;;;;;12.77;7.37;;;;;;;1.45;44.10;100460.44;5082874;28;20211;-58
2022/01/25 12:22:03;;;;;;;12.07;7.27;;;;;;;1.48;43.95;100445.16;5081106;28;20661;-58
2022/01/25 12:24:35;;;;;;;15.43;7.20;;;;;;;1.56;44.72;100459.00;5082259;28;20203;-59
2022/01/25 12:27:08;;;;;;;19.80;8.43;;;;;;;1.48;44.70;100449.41;5081235;28;20188;-58
2022/01/25 12:29:38;;;;;;;36.10;8.40;;;;;;;1.53;43.56;100460.63;5080153;28;20197;-58
2022/01/25 12:32:25;;;;;;;17.07;8.30;;;;;;;1.49;43.66;100446.88;5081143;28;20583;-58
2022/01/25 12:35:12;;;;;;;31.90;8.30;;;;;;;1.60;43.81;100439.44;5081948;28;20195;-59
2022/01/25 12:38:02;;;;;;;17.77;8.10;;;;;;;1.50;44.27;100427.28;5080736;28;20533;-59
2022/01/25 12:40:48;;;;;;;70.27;10.67;;;;;;;1.62;43.23;100428.41;5081919;28;20587;-57
2022/01/25 12:43:18;;;;;;;21.87;7.17;;;;;;;1.55;43.52;100435.94;5082068;28;20194;-58
2022/01/25 12:45:49;;;;;;;27.03;8.27;;;;;;;1.57;44.07;100426.59;5079545;28;20709;-58
2022/01/25 12:48:18;;;;;;;47.70;10.17;;;;;;;1.66;43.16;100424.25;5070937;28;20197;-58